createdAt,value
2022-12-26T00:02:10.752Z,56.30
2022-12-26T00:04:51.868Z,58.90
2022-12-26T00:07:27.761Z,47.30
2022-12-26T00:09:59.750Z,51.70
2022-12-26T00:12:32.165Z,53.70
2022-12-26T00:15:04.045Z,56.40
2022-12-26T00:17:36.670Z,47.30
2022-12-26T00:20:10.287Z,52.00
2022-12-26T00:22:42.345Z,62.10
2022-12-26T00:25:15.024Z,56.70
2022-12-26T00:27:47.067Z,53.50
2022-12-26T00:30:19.303Z,44.90
2022-12-26T00:33:01.267Z,48.50
2022-12-26T00:35:33.440Z,49.80
2022-12-26T00:38:07.993Z,46.10
2022-12-26T00:40:45.905Z,51.00
2022-12-26T00:43:18.117Z,45.30
2022-12-26T00:45:52.786Z,51.80
2022-12-26T00:48:24.910Z,45.40
2022-12-26T00:51:00.191Z,48.00
2022-12-26T00:53:36.261Z,47.80
2022-12-26T00:56:09.322Z,53.90
2022-12-26T00:58:46.544Z,47.80
2022-12-26T01:01:20.441Z,45.30
2022-12-26T01:04:04.910Z,56.90
2022-12-26T01:06:39.299Z,55.30
2022-12-26T01:09:17.436Z,50.60
2022-12-26T01:11:51.644Z,47.80
2022-12-26T01:14:26.387Z,40.70
2022-12-26T01:16:58.781Z,51.10
2022-12-26T01:19:33.961Z,45.60
2022-12-26T01:22:06.220Z,53.40
2022-12-26T01:24:38.825Z,44.60
2022-12-26T01:27:17.427Z,47.90
2022-12-26T01:29:59.726Z,45.70
2022-12-26T01:32:32.546Z,52.00
2022-12-26T01:35:06.930Z,52.80
2022-12-26T01:37:39.928Z,53.60
2022-12-26T01:40:15.425Z,55.40
2022-12-26T01:42:47.343Z,46.90
2022-12-26T01:45:29.160Z,61.20
2022-12-26T01:48:07.077Z,48.30
2022-12-26T01:50:48.149Z,46.30
2022-12-26T01:53:25.718Z,45.00
2022-12-26T01:56:00.750Z,56.10
2022-12-26T01:58:39.581Z,56.40
2022-12-26T02:01:15.792Z,42.60
2022-12-26T02:04:11.048Z,47.90
2022-12-26T02:06:46.257Z,50.50
2022-12-26T02:09:19.260Z,55.70
2022-12-26T02:12:36.265Z,47.20
2022-12-26T02:14:45.934Z,46.00
2022-12-26T02:17:18.748Z,58.00
2022-12-26T02:19:56.549Z,52.30
2022-12-26T02:22:58.726Z,52.20
2022-12-26T02:25:41.020Z,56.40
2022-12-26T02:28:52.897Z,50.70
2022-12-26T02:31:27.572Z,50.50
2022-12-26T02:34:07.291Z,60.10
2022-12-26T02:36:54.675Z,55.20
2022-12-26T02:39:43.478Z,60.60
2022-12-26T02:42:26.907Z,56.80
2022-12-26T02:45:21.532Z,60.80
2022-12-26T02:47:58.835Z,58.30
2022-12-26T02:50:52.719Z,57.80
2022-12-26T02:53:49.681Z,54.90
2022-12-26T02:56:43.411Z,58.30
2022-12-26T02:59:54.959Z,56.00
2022-12-26T03:02:50.562Z,60.10
2022-12-26T03:05:43.787Z,59.50
2022-12-26T03:08:39.696Z,50.70
2022-12-26T03:11:29.563Z,48.00
2022-12-26T03:14:07.559Z,54.80
2022-12-26T03:16:57.061Z,48.50
2022-12-26T03:19:30.832Z,48.90
2022-12-26T03:22:24.985Z,49.10
2022-12-26T03:25:12.207Z,53.20
2022-12-26T03:27:44.076Z,54.50
2022-12-26T03:30:34.750Z,44.90
2022-12-26T03:33:27.565Z,53.10
2022-12-26T03:35:59.809Z,54.60
2022-12-26T03:38:36.436Z,48.90
2022-12-26T03:41:32.000Z,42.50
2022-12-26T03:44:30.616Z,47.00
2022-12-26T03:47:30.101Z,54.40
2022-12-26T03:50:25.792Z,42.20
2022-12-26T03:53:21.387Z,51.30
2022-12-26T03:56:15.625Z,46.50
2022-12-26T03:59:09.871Z,37.30
2022-12-26T04:02:01.062Z,48.00
2022-12-26T04:04:52.316Z,54.70
2022-12-26T04:07:56.568Z,52.40
2022-12-26T04:10:50.215Z,45.10
2022-12-26T04:13:43.387Z,43.10
2022-12-26T04:16:37.196Z,44.00
2022-12-26T04:19:26.843Z,53.50
2022-12-26T04:22:22.897Z,45.40
2022-12-26T04:25:48.728Z,50.00
2022-12-26T04:28:37.055Z,48.10
2022-12-26T04:31:28.678Z,40.70
2022-12-26T04:34:20.889Z,41.40
2022-12-26T04:37:11.957Z,44.60
2022-12-26T04:40:04.603Z,38.70
2022-12-26T04:42:54.944Z,39.80
2022-12-26T04:45:27.068Z,38.30
2022-12-26T04:48:17.022Z,44.80
2022-12-26T04:50:54.083Z,42.40
2022-12-26T04:53:26.025Z,43.50
2022-12-26T04:55:58.024Z,42.20
2022-12-26T04:58:30.344Z,38.80
2022-12-26T05:01:16.178Z,38.70
2022-12-26T05:04:06.185Z,32.10
2022-12-26T05:06:55.852Z,39.30
2022-12-26T05:09:37.423Z,41.40
2022-12-26T05:12:11.212Z,35.70
2022-12-26T05:14:43.065Z,34.00
2022-12-26T05:17:33.869Z,31.50
2022-12-26T05:20:24.722Z,37.40
2022-12-26T05:23:14.494Z,29.10
2022-12-26T05:26:04.789Z,29.30
2022-12-26T05:28:42.753Z,37.80
2022-12-26T05:31:16.414Z,28.90
2022-12-26T05:34:05.945Z,30.40
2022-12-26T05:36:41.848Z,31.00
2022-12-26T05:39:14.228Z,28.10
2022-12-26T05:41:46.323Z,29.00
2022-12-26T05:44:18.490Z,29.20
2022-12-26T05:46:50.539Z,31.10
2022-12-26T05:49:22.558Z,28.00
2022-12-26T05:51:54.682Z,34.70
2022-12-26T05:54:26.643Z,30.50
2022-12-26T05:56:58.675Z,31.40
2022-12-26T05:59:31.186Z,26.20
2022-12-26T06:02:03.949Z,24.00
2022-12-26T06:04:36.707Z,26.30
2022-12-26T06:07:08.442Z,25.90
2022-12-26T06:09:40.585Z,24.10
2022-12-26T06:12:12.436Z,30.00
2022-12-26T06:14:44.593Z,25.70
2022-12-26T06:17:16.803Z,27.30
2022-12-26T06:19:49.295Z,26.10
2022-12-26T06:22:21.117Z,24.90
2022-12-26T06:24:53.180Z,25.30
2022-12-26T06:27:26.817Z,26.30
2022-12-26T06:29:58.966Z,25.50
2022-12-26T06:32:31.063Z,28.00
2022-12-26T06:35:03.370Z,24.00
2022-12-26T06:37:35.649Z,22.50
2022-12-26T06:40:10.730Z,19.50
2022-12-26T06:42:43.074Z,22.10
2022-12-26T06:45:15.693Z,26.00
2022-12-26T06:47:47.559Z,27.40
2022-12-26T06:50:22.046Z,22.50
2022-12-26T06:52:54.312Z,22.60
2022-12-26T06:55:26.339Z,20.30
2022-12-26T06:57:58.225Z,20.90
2022-12-26T07:00:31.111Z,24.10
2022-12-26T07:03:03.202Z,24.50
2022-12-26T07:05:38.485Z,24.30
2022-12-26T07:08:10.495Z,25.40
2022-12-26T07:10:43.267Z,25.60
2022-12-26T07:13:15.023Z,17.50
2022-12-26T07:15:47.543Z,28.80
2022-12-26T07:18:19.567Z,19.30
2022-12-26T07:20:51.634Z,22.10
2022-12-26T07:23:23.607Z,18.20
2022-12-26T07:25:55.611Z,17.00
2022-12-26T07:28:27.629Z,19.90
2022-12-26T07:31:00.591Z,20.20
2022-12-26T07:33:33.048Z,22.00
2022-12-26T07:36:06.549Z,21.10
2022-12-26T07:38:38.444Z,22.10
2022-12-26T07:41:24.479Z,20.90
2022-12-26T07:43:56.302Z,16.60
2022-12-26T07:46:28.362Z,17.20
2022-12-26T07:49:00.431Z,15.70
2022-12-26T07:51:32.555Z,20.20
2022-12-26T07:54:10.640Z,21.90
2022-12-26T07:56:43.947Z,18.40
2022-12-26T07:59:18.543Z,18.90
2022-12-26T08:01:51.366Z,21.10
2022-12-26T08:04:23.439Z,17.00
2022-12-26T08:06:55.334Z,17.90
2022-12-26T08:09:28.146Z,15.80
2022-12-26T08:12:00.433Z,23.40
2022-12-26T08:14:32.249Z,21.70
2022-12-26T08:17:04.529Z,21.40
2022-12-26T08:19:36.894Z,16.60
2022-12-26T08:22:08.948Z,22.80
2022-12-26T08:24:41.541Z,18.70
2022-12-26T08:27:13.509Z,22.80
2022-12-26T08:29:45.464Z,20.20
2022-12-26T08:32:17.625Z,26.20
2022-12-26T08:34:49.512Z,21.70
2022-12-26T08:37:22.125Z,22.30
2022-12-26T08:39:54.673Z,19.60
2022-12-26T08:42:26.580Z,20.10
2022-12-26T08:45:23.059Z,29.90
2022-12-26T08:48:01.190Z,22.10
2022-12-26T08:50:43.275Z,20.50
2022-12-26T08:53:31.031Z,19.30
2022-12-26T08:56:12.455Z,23.50
2022-12-26T08:58:53.251Z,18.70
2022-12-26T09:01:33.091Z,20.40
2022-12-26T09:04:20.886Z,25.40
2022-12-26T09:07:21.205Z,24.90
2022-12-26T09:09:58.065Z,20.20
2022-12-26T09:12:30.028Z,23.10
2022-12-26T09:15:10.220Z,26.30
2022-12-26T09:17:48.321Z,21.30
2022-12-26T09:20:20.436Z,20.60
2022-12-26T09:22:54.238Z,24.40
2022-12-26T09:29:05.084Z,21.10
2022-12-26T09:32:00.587Z,20.80
2022-12-26T09:35:05.587Z,21.10
2022-12-26T09:37:44.672Z,25.90
2022-12-26T09:40:25.471Z,22.80
2022-12-26T09:43:20.451Z,24.10
2022-12-26T09:46:07.151Z,30.00
2022-12-26T09:48:42.377Z,20.40
2022-12-26T09:51:14.448Z,20.20
2022-12-26T09:53:48.025Z,24.00
2022-12-26T09:57:01.149Z,23.80
2022-12-26T09:59:18.098Z,17.30
2022-12-26T10:01:50.337Z,25.40
2022-12-26T10:04:29.591Z,22.70
2022-12-26T10:07:10.377Z,26.50
2022-12-26T10:09:54.521Z,30.10
2022-12-26T10:12:41.443Z,26.60
2022-12-26T10:15:37.798Z,28.30
2022-12-26T10:18:24.250Z,22.20
2022-12-26T10:21:07.523Z,29.30
2022-12-26T10:23:40.955Z,29.40
2022-12-26T10:28:47.967Z,27.00
2022-12-26T10:31:22.799Z,31.60
2022-12-26T10:33:57.692Z,29.90
2022-12-26T10:36:36.542Z,33.90
2022-12-26T10:39:15.199Z,30.60
2022-12-26T10:41:49.789Z,24.90
2022-12-26T10:44:27.334Z,22.60
2022-12-26T10:47:09.357Z,30.40
2022-12-26T10:49:41.333Z,32.10
2022-12-26T10:52:13.655Z,29.70
2022-12-26T10:54:47.520Z,37.20
2022-12-26T10:57:19.376Z,34.60
2022-12-26T10:59:53.649Z,36.30
2022-12-26T11:02:30.857Z,33.90
2022-12-26T11:05:32.742Z,33.90
2022-12-26T11:08:09.377Z,32.00
2022-12-26T11:10:41.373Z,34.30
2022-12-26T11:13:21.964Z,37.30
2022-12-26T11:15:55.934Z,29.70
2022-12-26T11:18:35.511Z,33.30
2022-12-26T11:21:23.989Z,38.60
2022-12-26T11:24:13.026Z,36.30
2022-12-26T11:26:44.947Z,30.50
2022-12-26T11:29:18.991Z,36.60
2022-12-26T11:34:32.646Z,27.80
2022-12-26T11:37:06.486Z,38.20
2022-12-26T11:39:39.861Z,35.40
2022-12-26T11:42:17.085Z,33.20
2022-12-26T11:44:52.587Z,36.00
2022-12-26T11:47:27.123Z,31.20
2022-12-26T11:50:03.020Z,35.50
2022-12-26T11:52:37.943Z,32.20
2022-12-26T11:55:33.613Z,36.50
2022-12-26T11:58:18.947Z,37.70
2022-12-26T12:01:13.712Z,35.40
2022-12-26T12:03:49.571Z,35.30
2022-12-26T12:06:35.689Z,32.20
2022-12-26T12:09:15.349Z,35.10
2022-12-26T12:11:53.217Z,30.20
2022-12-26T12:14:52.609Z,32.70
2022-12-26T12:17:28.757Z,33.80
2022-12-26T12:20:20.824Z,29.80
2022-12-26T12:23:03.458Z,27.10
2022-12-26T12:26:00.031Z,26.10
2022-12-26T12:29:01.420Z,22.60
2022-12-26T12:31:40.965Z,25.30
2022-12-26T12:34:23.567Z,25.60
2022-12-26T12:37:05.744Z,24.60
2022-12-26T12:39:46.850Z,23.20
2022-12-26T12:42:29.010Z,24.50
2022-12-26T12:45:27.427Z,21.30
2022-12-26T12:48:11.370Z,20.90
2022-12-26T12:50:53.087Z,24.80
2022-12-26T12:53:38.623Z,23.10
2022-12-26T12:56:24.453Z,19.70
2022-12-26T12:59:01.331Z,17.80
2022-12-26T13:01:40.065Z,19.10
2022-12-26T13:04:14.707Z,19.80
2022-12-26T13:06:50.850Z,19.70
2022-12-26T13:09:25.120Z,20.80
2022-12-26T13:12:02.290Z,25.60
2022-12-26T13:14:36.829Z,19.90
2022-12-26T13:17:13.015Z,17.60
2022-12-26T13:19:51.767Z,20.10
2022-12-26T13:22:51.755Z,17.60
2022-12-26T13:25:26.177Z,18.80
2022-12-26T13:28:09.873Z,23.50
2022-12-26T13:30:42.256Z,21.00
2022-12-26T13:33:16.191Z,22.10
2022-12-26T13:35:55.637Z,17.40
2022-12-26T13:38:53.947Z,17.00
2022-12-26T13:41:46.932Z,23.60
2022-12-26T13:44:29.374Z,18.00
2022-12-26T13:47:02.530Z,17.50
2022-12-26T13:49:37.409Z,18.60
2022-12-26T13:52:35.554Z,18.70
2022-12-26T13:55:45.768Z,18.70
2022-12-26T13:58:34.495Z,16.20
2022-12-26T14:01:10.188Z,15.90
2022-12-26T14:03:52.504Z,16.40
2022-12-26T14:06:37.990Z,14.30
2022-12-26T14:09:31.446Z,14.80
2022-12-26T14:12:17.966Z,15.70
2022-12-26T14:15:12.736Z,20.10
2022-12-26T14:17:53.157Z,20.00
2022-12-26T14:20:39.586Z,16.50
2022-12-26T14:23:25.886Z,15.10
2022-12-26T14:26:03.362Z,13.50
2022-12-26T14:28:52.671Z,14.40
2022-12-26T14:31:31.525Z,16.80
2022-12-26T14:34:15.462Z,16.50
2022-12-26T14:36:51.551Z,14.70
2022-12-26T14:39:29.631Z,17.80
2022-12-26T14:42:41.785Z,19.20
2022-12-26T14:45:41.936Z,13.70
2022-12-26T14:48:54.272Z,15.90
2022-12-26T14:51:42.934Z,17.40
2022-12-26T14:54:38.619Z,16.50
2022-12-26T14:57:47.501Z,15.00
2022-12-26T15:00:35.200Z,13.90
2022-12-26T15:03:39.174Z,14.40
2022-12-26T15:06:43.900Z,15.30
2022-12-26T15:09:41.659Z,15.00
2022-12-26T15:13:00.897Z,16.30
2022-12-26T15:15:38.482Z,16.20
2022-12-26T15:18:48.788Z,20.10
2022-12-26T15:21:53.442Z,17.80
2022-12-26T15:25:18.702Z,16.10
2022-12-26T15:28:31.989Z,18.90
2022-12-26T15:31:28.748Z,17.70
2022-12-26T15:34:07.456Z,17.20
2022-12-26T15:36:47.603Z,19.90
2022-12-26T15:39:26.006Z,16.60
2022-12-26T15:42:14.735Z,20.30
2022-12-26T15:44:52.575Z,18.60
2022-12-26T15:47:33.040Z,20.40
2022-12-26T15:50:20.409Z,18.90
2022-12-26T15:52:59.613Z,19.80
2022-12-26T15:55:44.454Z,19.80
2022-12-26T15:58:31.582Z,19.10
2022-12-26T16:01:07.170Z,19.20
2022-12-26T16:03:46.867Z,21.50
2022-12-26T16:06:32.744Z,20.90
2022-12-26T16:09:14.881Z,21.60
2022-12-26T16:11:53.680Z,23.50
2022-12-26T16:14:32.684Z,22.00
2022-12-26T16:17:21.284Z,19.70
2022-12-26T16:19:54.217Z,22.60
2022-12-26T16:22:47.065Z,21.60
2022-12-26T16:25:21.745Z,24.40
2022-12-26T16:27:58.160Z,23.80
2022-12-26T16:30:32.013Z,25.90
2022-12-26T16:33:03.982Z,24.50
2022-12-26T16:35:37.933Z,24.40
2022-12-26T16:38:13.896Z,23.80
2022-12-26T16:40:51.166Z,24.00
2022-12-26T16:43:29.090Z,21.50
2022-12-26T16:46:04.622Z,26.80
2022-12-26T16:48:36.956Z,24.20
2022-12-26T16:51:27.903Z,26.10
2022-12-26T16:54:17.828Z,21.70
2022-12-26T16:56:53.379Z,26.00
2022-12-26T16:59:27.091Z,22.50
2022-12-26T17:02:01.111Z,25.00
2022-12-26T17:04:33.453Z,26.60
2022-12-26T17:07:10.192Z,21.30
2022-12-26T17:09:44.866Z,23.40
2022-12-26T17:12:27.539Z,16.90
2022-12-26T17:15:00.830Z,17.10
2022-12-26T17:17:37.013Z,17.40
2022-12-26T17:20:34.044Z,20.40
2022-12-26T17:23:36.022Z,18.80
2022-12-26T17:26:25.839Z,17.50
2022-12-26T17:29:04.126Z,19.40
2022-12-26T17:31:39.208Z,16.50
2022-12-26T17:34:28.143Z,15.90
2022-12-26T17:37:20.903Z,38.90
2022-12-26T17:40:08.805Z,32.10
2022-12-26T17:42:48.706Z,28.10
2022-12-26T17:45:23.423Z,17.60
2022-12-26T17:47:56.521Z,17.00
2022-12-26T17:50:34.965Z,11.60
2022-12-26T17:53:08.674Z,19.00
2022-12-26T17:55:40.793Z,16.00
2022-12-26T17:58:14.976Z,18.60
2022-12-26T18:00:47.833Z,17.00
2022-12-26T18:03:20.121Z,15.80
2022-12-26T18:05:52.225Z,18.00
2022-12-26T18:08:29.319Z,15.30
2022-12-26T18:11:02.236Z,16.30
2022-12-26T18:13:34.641Z,21.20
2022-12-26T18:16:08.242Z,17.60
2022-12-26T18:18:41.790Z,19.30
2022-12-26T18:21:16.942Z,19.70
2022-12-26T18:23:49.441Z,24.70
2022-12-26T18:26:26.489Z,22.40
2022-12-26T18:28:58.724Z,18.70
2022-12-26T18:31:31.612Z,21.70
2022-12-26T18:34:03.928Z,23.80
2022-12-26T18:36:38.482Z,19.50
2022-12-26T18:39:11.538Z,24.10
2022-12-26T18:41:45.875Z,19.80
2022-12-26T18:44:19.792Z,25.80
2022-12-26T18:46:52.044Z,20.20
2022-12-26T18:49:25.993Z,23.60
2022-12-26T18:51:58.006Z,25.40
2022-12-26T18:54:30.138Z,27.70
2022-12-26T18:57:02.232Z,22.50
2022-12-26T18:59:34.388Z,29.10
2022-12-26T19:02:07.062Z,23.10
2022-12-26T19:04:41.201Z,21.00
2022-12-26T19:09:47.024Z,22.80
2022-12-26T19:12:19.146Z,22.50
2022-12-26T19:14:51.247Z,25.00
2022-12-26T19:17:23.504Z,21.20
2022-12-26T19:19:55.878Z,22.50
2022-12-26T19:22:27.719Z,25.40
2022-12-26T19:24:59.815Z,25.20
2022-12-26T19:27:31.723Z,21.80
2022-12-26T19:30:03.812Z,22.20
2022-12-26T19:32:35.697Z,21.30
2022-12-26T19:35:10.419Z,22.10
2022-12-26T19:37:42.954Z,23.50
2022-12-26T19:40:24.726Z,22.10
2022-12-26T19:42:57.279Z,22.60
2022-12-26T19:45:29.402Z,19.80
2022-12-26T19:48:01.524Z,22.60
2022-12-26T19:50:34.687Z,33.40
2022-12-26T19:53:06.756Z,16.50
2022-12-26T19:55:40.621Z,22.70
2022-12-26T19:58:12.511Z,21.30
2022-12-26T20:00:45.869Z,21.00
2022-12-26T20:03:18.117Z,18.30
2022-12-26T20:05:50.051Z,18.10
2022-12-26T20:08:21.996Z,17.90
2022-12-26T20:11:00.517Z,25.30
2022-12-26T20:13:33.062Z,20.90
2022-12-26T20:16:06.563Z,19.20
2022-12-26T20:18:39.126Z,19.10
2022-12-26T20:21:12.044Z,17.10
2022-12-26T20:23:44.820Z,17.70
2022-12-26T20:26:18.624Z,18.00
2022-12-26T20:28:50.626Z,16.40
2022-12-26T20:31:23.986Z,16.20
2022-12-26T20:33:57.883Z,15.00
2022-12-26T20:36:32.493Z,18.90
2022-12-26T20:39:07.012Z,17.60
2022-12-26T20:41:39.015Z,16.80
2022-12-26T20:44:11.220Z,17.80
2022-12-26T20:46:44.256Z,17.20
2022-12-26T20:49:16.270Z,17.10
2022-12-26T20:51:48.186Z,15.80
2022-12-26T20:54:19.996Z,19.00
2022-12-26T20:56:51.891Z,17.40
2022-12-26T20:59:23.865Z,16.20
2022-12-26T21:01:55.816Z,17.60
2022-12-26T21:04:29.004Z,13.10
2022-12-26T21:07:01.188Z,18.50
2022-12-26T21:09:33.031Z,17.80
2022-12-26T21:12:06.343Z,17.50
2022-12-26T21:14:38.172Z,16.30
2022-12-26T21:17:10.015Z,19.30
2022-12-26T21:19:42.316Z,17.90
2022-12-26T21:22:14.464Z,19.50
2022-12-26T21:24:46.595Z,16.60
2022-12-26T21:27:18.607Z,17.30
2022-12-26T21:29:50.605Z,16.60
2022-12-26T21:32:22.425Z,15.60
2022-12-26T21:34:54.230Z,19.30
2022-12-26T21:37:39.900Z,18.20
2022-12-26T21:40:13.560Z,15.50
2022-12-26T21:42:45.419Z,13.40
2022-12-26T21:45:17.580Z,19.40
2022-12-26T21:47:49.606Z,17.50
2022-12-26T21:50:22.016Z,17.10
2022-12-26T21:52:54.105Z,17.00
2022-12-26T21:55:31.209Z,22.70
2022-12-26T21:58:06.029Z,46.90
2022-12-26T22:00:38.107Z,57.80
2022-12-26T22:03:29.390Z,17.70
2022-12-26T22:06:04.015Z,15.80
2022-12-26T22:08:36.250Z,17.10
2022-12-26T22:11:33.239Z,17.40
2022-12-26T22:14:05.137Z,17.90
2022-12-26T22:16:37.092Z,16.30
2022-12-26T22:19:09.368Z,17.90
2022-12-26T22:21:41.255Z,18.40
2022-12-26T22:24:14.960Z,18.20
2022-12-26T22:26:46.901Z,18.30
2022-12-26T22:29:19.089Z,18.00
2022-12-26T22:31:50.933Z,17.20
2022-12-26T22:34:22.894Z,17.40
2022-12-26T22:36:56.681Z,17.60
2022-12-26T22:39:28.665Z,17.50
2022-12-26T22:42:02.425Z,17.40
2022-12-26T22:44:34.605Z,17.20
2022-12-26T22:47:06.626Z,17.20
2022-12-26T22:49:41.092Z,15.60
2022-12-26T22:52:16.028Z,16.00
2022-12-26T22:54:48.058Z,16.60
2022-12-26T22:57:20.412Z,17.10
2022-12-26T23:00:09.485Z,14.80
2022-12-26T23:02:42.309Z,15.70
2022-12-26T23:05:15.847Z,16.20
2022-12-26T23:07:48.745Z,19.00
2022-12-26T23:10:23.144Z,17.90
2022-12-26T23:12:56.066Z,16.30
2022-12-26T23:15:29.846Z,14.70
2022-12-26T23:18:36.483Z,16.10
2022-12-26T23:21:32.002Z,20.10
2022-12-26T23:24:03.921Z,18.90
2022-12-26T23:26:35.895Z,23.70
2022-12-26T23:29:25.670Z,17.20
2022-12-26T23:31:57.520Z,18.70
2022-12-26T23:34:29.931Z,23.10
2022-12-26T23:37:04.999Z,19.20
2022-12-26T23:39:38.155Z,16.80
2022-12-26T23:42:14.811Z,16.80
2022-12-26T23:44:46.757Z,17.20
2022-12-26T23:47:21.463Z,20.80
2022-12-26T23:49:53.565Z,20.00
2022-12-26T23:52:30.560Z,15.40
2022-12-26T23:55:07.388Z,18.10
2022-12-26T23:57:39.331Z,24.50
